createdAt,value
2023-03-13T00:00:36.158Z,6.10
2023-03-13T00:03:36.990Z,6.00
2023-03-13T00:06:40.230Z,6.00
2023-03-13T00:09:41.390Z,6.30
2023-03-13T00:12:42.099Z,6.70
2023-03-13T00:15:43.363Z,6.80
2023-03-13T00:18:50.840Z,6.90
2023-03-13T00:21:52.042Z,6.80
2023-03-13T00:24:52.790Z,6.60
2023-03-13T00:27:53.763Z,6.60
2023-03-13T00:31:09.562Z,6.60
2023-03-13T00:34:11.142Z,6.70
2023-03-13T00:37:12.173Z,6.80
2023-03-13T00:40:13.731Z,6.80
2023-03-13T00:43:14.738Z,6.90
2023-03-13T00:46:19.717Z,7.10
2023-03-13T00:49:20.860Z,7.20
2023-03-13T00:52:22.161Z,7.30
2023-03-13T00:55:22.851Z,7.20
2023-03-13T00:58:25.500Z,7.40
2023-03-13T01:01:33.830Z,7.30
2023-03-13T01:04:35.073Z,7.10
2023-03-13T01:07:36.207Z,7.00
2023-03-13T01:10:37.094Z,7.00
2023-03-13T01:13:38.786Z,7.10
2023-03-13T01:16:41.030Z,7.20
2023-03-13T01:19:42.917Z,7.50
2023-03-13T01:22:43.676Z,7.80
2023-03-13T01:25:44.514Z,8.00
2023-03-13T01:28:46.454Z,8.10
2023-03-13T01:31:47.649Z,8.20
2023-03-13T01:34:48.580Z,8.30
2023-03-13T01:37:49.309Z,8.20
2023-03-13T01:40:50.582Z,8.00
2023-03-13T01:43:51.858Z,8.00
2023-03-13T01:46:53.303Z,8.40
2023-03-13T01:50:00.204Z,8.30
2023-03-13T01:53:12.458Z,8.40
2023-03-13T01:56:22.684Z,8.40
2023-03-13T01:59:30.762Z,8.40
2023-03-13T02:02:32.051Z,8.50
2023-03-13T02:05:33.974Z,8.70
2023-03-13T02:08:43.335Z,8.80
2023-03-13T02:12:03.660Z,8.90
2023-03-13T02:15:14.095Z,9.00
2023-03-13T02:18:16.293Z,9.00
2023-03-13T02:22:03.547Z,9.00
2023-03-13T02:25:38.414Z,9.00
2023-03-13T02:28:39.813Z,9.10
2023-03-13T02:31:48.588Z,9.10
2023-03-13T02:34:56.084Z,9.20
2023-03-13T02:38:03.099Z,9.20
2023-03-13T02:41:06.547Z,9.20
2023-03-13T02:44:07.889Z,9.00
2023-03-13T02:47:10.032Z,9.10
2023-03-13T02:50:13.590Z,9.10
2023-03-13T02:53:14.970Z,9.20
2023-03-13T02:56:22.695Z,9.20
2023-03-13T02:59:25.097Z,9.20
2023-03-13T03:02:26.276Z,9.20
2023-03-13T03:05:28.072Z,9.30
2023-03-13T03:08:30.026Z,9.10
2023-03-13T03:11:31.434Z,9.10
2023-03-13T03:14:37.291Z,9.00
2023-03-13T03:17:40.081Z,9.10
2023-03-13T03:20:41.049Z,9.00
2023-03-13T03:23:41.736Z,9.10
2023-03-13T03:26:43.002Z,8.70
2023-03-13T03:29:51.145Z,8.60
2023-03-13T03:32:52.524Z,8.70
2023-03-13T03:36:05.178Z,8.90
2023-03-13T03:39:06.655Z,9.10
2023-03-13T03:42:09.720Z,9.10
2023-03-13T03:45:11.769Z,9.20
2023-03-13T03:48:12.629Z,9.20
2023-03-13T03:51:14.127Z,9.20
2023-03-13T03:54:17.845Z,9.10
2023-03-13T03:57:19.261Z,9.10
2023-03-13T04:00:21.231Z,9.20
2023-03-13T04:03:27.036Z,9.20
2023-03-13T04:06:28.119Z,9.30
2023-03-13T04:09:31.948Z,9.30
2023-03-13T04:12:34.149Z,9.40
2023-03-13T04:15:35.488Z,9.60
2023-03-13T04:18:37.374Z,9.60
2023-03-13T04:21:39.886Z,9.60
2023-03-13T04:24:51.433Z,9.60
2023-03-13T04:27:54.203Z,9.50
2023-03-13T04:30:58.545Z,9.50
2023-03-13T04:34:16.716Z,9.40
2023-03-13T04:37:35.856Z,9.30
2023-03-13T04:40:48.090Z,9.30
2023-03-13T04:44:13.052Z,9.40
2023-03-13T04:47:34.634Z,9.40
2023-03-13T04:50:42.971Z,9.40
2023-03-13T04:54:12.702Z,9.70
2023-03-13T04:57:40.045Z,9.60
2023-03-13T05:00:57.175Z,9.60
2023-03-13T05:04:16.501Z,9.70
2023-03-13T05:07:37.489Z,9.60
2023-03-13T05:11:01.393Z,9.60
2023-03-13T05:14:28.447Z,9.70
2023-03-13T05:17:55.474Z,9.70
2023-03-13T05:21:07.053Z,9.60
2023-03-13T05:24:26.015Z,9.70
2023-03-13T05:27:46.210Z,9.70
2023-03-13T05:30:59.831Z,9.70
2023-03-13T05:34:27.479Z,9.70
2023-03-13T05:37:28.183Z,9.70
2023-03-13T05:40:43.179Z,9.90
2023-03-13T05:44:16.455Z,9.90
2023-03-13T05:47:37.006Z,9.80
2023-03-13T05:50:47.535Z,9.90
2023-03-13T05:54:06.890Z,9.90
2023-03-13T05:57:26.190Z,9.80
2023-03-13T06:00:36.515Z,9.80
2023-03-13T06:03:55.726Z,9.90
2023-03-13T06:06:58.433Z,10.00
2023-03-13T06:09:59.782Z,10.10
2023-03-13T06:13:17.214Z,10.20
2023-03-13T06:16:20.666Z,10.20
2023-03-13T06:19:24.561Z,10.30
2023-03-13T06:22:25.926Z,10.50
2023-03-13T06:25:27.088Z,10.50
2023-03-13T06:28:28.577Z,10.50
2023-03-13T06:31:30.160Z,10.50
2023-03-13T06:34:31.435Z,10.50
2023-03-13T06:37:32.191Z,10.40
2023-03-13T06:40:33.122Z,10.40
2023-03-13T06:43:34.168Z,10.40
2023-03-13T06:46:35.600Z,10.30
2023-03-13T06:49:36.672Z,10.40
2023-03-13T06:52:43.984Z,10.40
2023-03-13T06:55:46.341Z,10.50
2023-03-13T06:58:50.867Z,10.40
2023-03-13T07:01:51.666Z,10.50
2023-03-13T07:04:52.896Z,10.50
2023-03-13T07:07:54.191Z,10.60
2023-03-13T07:11:01.522Z,10.70
2023-03-13T07:14:15.244Z,10.80
2023-03-13T07:17:17.782Z,11.00
2023-03-13T07:20:18.753Z,11.20
2023-03-13T07:23:19.690Z,11.20
2023-03-13T07:26:20.900Z,11.30
2023-03-13T07:29:21.838Z,11.30
2023-03-13T07:32:23.076Z,11.50
2023-03-13T07:35:23.988Z,11.60
2023-03-13T07:38:25.129Z,11.80
2023-03-13T07:41:26.505Z,12.00
2023-03-13T07:44:27.442Z,12.20
2023-03-13T07:47:28.537Z,12.30
2023-03-13T07:50:29.482Z,12.40
2023-03-13T07:53:31.343Z,12.50
2023-03-13T07:56:32.594Z,12.70
2023-03-13T07:59:33.716Z,12.70
2023-03-13T08:02:34.684Z,12.70
2023-03-13T08:05:35.489Z,13.00
2023-03-13T08:08:37.879Z,13.10
2023-03-13T08:11:46.910Z,13.20
2023-03-13T08:14:47.746Z,13.10
2023-03-13T08:17:48.497Z,13.10
2023-03-13T08:20:50.448Z,13.20
2023-03-13T08:23:59.371Z,13.30
2023-03-13T08:27:00.726Z,13.50
2023-03-13T08:30:01.557Z,13.60
2023-03-13T08:33:02.895Z,14.00
2023-03-13T08:36:36.690Z,13.80
2023-03-13T08:39:37.841Z,13.80
2023-03-13T08:42:40.409Z,13.70
2023-03-13T08:45:41.254Z,13.70
2023-03-13T08:48:42.679Z,14.00
2023-03-13T08:51:44.041Z,14.10
2023-03-13T08:54:44.803Z,14.00
2023-03-13T08:57:45.800Z,14.20
2023-03-13T09:00:46.401Z,14.40
2023-03-13T09:03:47.140Z,14.40
2023-03-13T09:06:48.338Z,14.70
2023-03-13T09:09:49.504Z,14.80
2023-03-13T09:12:50.366Z,14.90
2023-03-13T09:16:03.446Z,14.50
2023-03-13T09:19:05.122Z,14.90
2023-03-13T09:22:06.247Z,15.00
2023-03-13T09:25:07.457Z,15.20
2023-03-13T09:28:08.278Z,15.60
2023-03-13T09:31:14.822Z,16.40
2023-03-13T09:34:16.031Z,16.50
2023-03-13T09:37:17.031Z,16.20
2023-03-13T09:40:23.494Z,16.50
2023-03-13T09:43:57.249Z,17.00
2023-03-13T09:47:13.095Z,17.50
2023-03-13T09:50:28.026Z,17.60
2023-03-13T09:53:46.721Z,17.90
2023-03-13T09:57:13.165Z,17.80
2023-03-13T10:00:20.073Z,18.00
2023-03-13T10:03:27.621Z,18.10
2023-03-13T10:06:35.438Z,18.20
2023-03-13T10:09:37.497Z,17.90
2023-03-13T10:12:48.388Z,17.50
2023-03-13T10:15:59.148Z,17.90
2023-03-13T10:19:11.271Z,19.10
2023-03-13T10:22:20.244Z,19.10
2023-03-13T10:25:35.683Z,19.90
2023-03-13T10:28:36.396Z,19.70
2023-03-13T10:31:39.548Z,19.80
2023-03-13T10:35:02.051Z,20.00
2023-03-13T10:38:25.249Z,20.60
2023-03-13T10:41:35.866Z,19.20
2023-03-13T10:44:37.092Z,19.50
2023-03-13T10:47:39.150Z,20.30
2023-03-13T10:50:49.156Z,19.80
2023-03-13T10:53:51.628Z,19.50
2023-03-13T10:57:27.439Z,19.60
2023-03-13T11:00:33.439Z,18.90
2023-03-13T11:03:34.798Z,19.70
2023-03-13T11:06:41.370Z,19.50
2023-03-13T11:09:42.458Z,19.30
2023-03-13T11:12:57.231Z,20.30
2023-03-13T11:16:06.510Z,20.00
2023-03-13T11:19:13.586Z,20.10
2023-03-13T11:22:14.605Z,18.90
2023-03-13T11:25:39.299Z,19.00
2023-03-13T11:29:17.161Z,19.70
2023-03-13T11:32:30.269Z,18.90
2023-03-13T11:35:59.881Z,19.60
2023-03-13T11:39:32.014Z,19.60
2023-03-13T11:42:56.124Z,19.70
2023-03-13T11:46:20.296Z,20.30
2023-03-13T11:49:40.838Z,18.80
2023-03-13T11:52:51.955Z,19.90
2023-03-13T11:56:23.122Z,19.80
2023-03-13T11:59:54.133Z,21.80
2023-03-13T12:02:59.252Z,22.20
2023-03-13T12:06:03.754Z,21.40
2023-03-13T12:09:44.758Z,20.60
2023-03-13T12:13:07.878Z,21.20
2023-03-13T12:16:21.155Z,21.50
2023-03-13T12:19:48.624Z,22.50
2023-03-13T12:23:19.215Z,23.60
2023-03-13T12:26:31.325Z,25.40
2023-03-13T12:29:45.738Z,23.50
2023-03-13T12:33:14.598Z,23.70
2023-03-13T12:36:31.882Z,24.90
2023-03-13T12:39:47.952Z,24.70
2023-03-13T12:43:33.093Z,24.90
2023-03-13T12:47:16.120Z,26.20
2023-03-13T12:50:41.201Z,25.20
2023-03-13T12:54:29.114Z,23.80
2023-03-13T12:58:10.682Z,25.00
2023-03-13T13:01:30.638Z,27.20
2023-03-13T13:04:42.226Z,26.80
2023-03-13T13:07:55.112Z,25.50
2023-03-13T13:11:34.376Z,25.20
2023-03-13T13:15:15.189Z,26.90
2023-03-13T13:18:29.160Z,26.90
2023-03-13T13:21:31.234Z,27.50
2023-03-13T13:25:00.251Z,28.50
2023-03-13T13:28:15.995Z,25.30
2023-03-13T13:31:47.739Z,24.50
2023-03-13T13:35:10.225Z,24.30
2023-03-13T13:38:29.401Z,23.70
2023-03-13T13:41:38.004Z,22.80
2023-03-13T13:45:46.365Z,23.80
2023-03-13T13:48:47.207Z,24.10
2023-03-13T13:52:03.950Z,26.90
2023-03-13T13:55:41.073Z,27.90
2023-03-13T13:58:46.135Z,26.00
2023-03-13T14:02:10.895Z,24.10
2023-03-13T14:05:27.108Z,25.50
2023-03-13T14:08:39.430Z,23.40
2023-03-13T14:11:40.447Z,24.50
2023-03-13T14:14:41.690Z,23.80
2023-03-13T14:17:48.785Z,24.20
2023-03-13T14:21:03.750Z,23.50
2023-03-13T14:24:15.008Z,23.70
2023-03-13T14:27:19.524Z,25.00
2023-03-13T14:30:23.215Z,24.80
2023-03-13T14:33:29.289Z,24.40
2023-03-13T14:36:30.979Z,23.10
2023-03-13T14:39:38.706Z,26.00
2023-03-13T14:43:10.268Z,26.50
2023-03-13T14:46:31.216Z,27.10
2023-03-13T14:49:35.065Z,26.60
2023-03-13T14:52:36.281Z,27.00
2023-03-13T14:55:40.552Z,27.80
2023-03-13T14:58:41.864Z,28.30
2023-03-13T15:01:43.911Z,28.30
2023-03-13T15:04:55.161Z,28.70
2023-03-13T15:07:56.819Z,27.60
2023-03-13T15:10:57.787Z,28.20
2023-03-13T15:13:58.887Z,27.90
2023-03-13T15:16:59.901Z,27.50
2023-03-13T15:20:01.158Z,25.20
2023-03-13T15:23:02.691Z,25.60
2023-03-13T15:26:05.770Z,25.40
2023-03-13T15:29:06.711Z,28.20
2023-03-13T15:32:31.530Z,29.00
2023-03-13T15:35:34.172Z,26.60
2023-03-13T15:38:35.576Z,25.10
2023-03-13T15:41:36.280Z,23.80
2023-03-13T15:44:37.194Z,22.70
2023-03-13T15:47:38.649Z,22.70
2023-03-13T15:50:39.704Z,24.30
2023-03-13T15:53:42.069Z,23.50
2023-03-13T15:56:43.110Z,25.40
2023-03-13T15:59:44.797Z,22.70
2023-03-13T16:02:45.594Z,21.70
2023-03-13T16:05:49.067Z,22.70
2023-03-13T16:08:50.145Z,22.30
2023-03-13T16:11:50.854Z,23.80
2023-03-13T16:14:51.672Z,26.50
2023-03-13T16:17:52.523Z,27.00
2023-03-13T16:20:54.806Z,24.70
2023-03-13T16:23:56.053Z,21.50
2023-03-13T16:26:57.008Z,20.10
2023-03-13T16:29:57.850Z,19.40
2023-03-13T16:32:59.503Z,19.70
2023-03-13T16:36:00.704Z,19.20
2023-03-13T16:39:19.443Z,19.10
2023-03-13T16:42:20.518Z,19.10
2023-03-13T16:45:21.786Z,18.50
2023-03-13T16:48:23.821Z,18.10
2023-03-13T16:51:27.587Z,17.70
2023-03-13T16:54:28.431Z,17.10
2023-03-13T16:57:29.280Z,17.00
2023-03-13T17:00:32.160Z,16.80
2023-03-13T17:03:33.197Z,16.60
2023-03-13T17:06:44.918Z,16.50
2023-03-13T17:09:46.084Z,16.30
2023-03-13T17:12:48.346Z,16.20
2023-03-13T17:15:49.369Z,16.10
2023-03-13T17:18:54.377Z,16.00
2023-03-13T17:21:55.685Z,15.80
2023-03-13T17:24:56.610Z,15.50
2023-03-13T17:27:57.969Z,15.40
2023-03-13T17:30:58.742Z,15.30
2023-03-13T17:34:02.234Z,15.30
2023-03-13T17:37:05.042Z,15.30
2023-03-13T17:40:28.799Z,15.30
2023-03-13T17:43:29.926Z,15.00
2023-03-13T17:46:46.695Z,14.70
2023-03-13T17:49:47.894Z,14.60
2023-03-13T17:52:49.266Z,14.50
2023-03-13T17:55:50.407Z,14.50
2023-03-13T17:58:54.883Z,14.30
2023-03-13T18:01:56.062Z,14.40
2023-03-13T18:04:57.278Z,14.30
2023-03-13T18:07:58.406Z,13.70
2023-03-13T18:10:59.565Z,13.70
2023-03-13T18:14:01.224Z,14.20
2023-03-13T18:17:02.081Z,14.70
2023-03-13T18:20:03.141Z,15.10
2023-03-13T18:23:04.218Z,14.90
2023-03-13T18:26:39.269Z,13.80
2023-03-13T18:29:40.833Z,13.70
2023-03-13T18:32:41.762Z,13.80
2023-03-13T18:35:43.227Z,13.90
2023-03-13T18:38:45.638Z,13.90
2023-03-13T18:41:48.760Z,13.30
2023-03-13T18:44:50.174Z,13.10
2023-03-13T18:47:51.522Z,12.90
2023-03-13T18:50:52.390Z,13.00
2023-03-13T18:53:55.251Z,13.40
2023-03-13T18:56:56.437Z,13.60
2023-03-13T18:59:57.405Z,13.70
2023-03-13T19:02:58.290Z,13.70
2023-03-13T19:06:01.402Z,13.90
2023-03-13T19:09:41.562Z,13.90
2023-03-13T19:12:39.625Z,13.90
2023-03-13T19:15:40.489Z,13.50
2023-03-13T19:18:43.544Z,13.00
2023-03-13T19:21:44.725Z,12.80
2023-03-13T19:24:45.594Z,12.60
2023-03-13T19:27:47.928Z,13.10
2023-03-13T19:30:49.227Z,13.10
2023-03-13T19:33:53.457Z,13.20
2023-03-13T19:36:54.599Z,12.90
2023-03-13T19:39:55.452Z,12.90
2023-03-13T19:42:56.340Z,13.20
2023-03-13T19:45:57.069Z,13.50
2023-03-13T19:49:01.485Z,13.90
2023-03-13T19:52:02.438Z,13.90
2023-03-13T19:55:05.430Z,13.90
2023-03-13T19:58:07.420Z,13.90
2023-03-13T20:01:17.114Z,14.00
2023-03-13T20:04:18.581Z,14.10
2023-03-13T20:07:19.612Z,14.00
2023-03-13T20:10:21.932Z,13.90
2023-03-13T20:13:22.595Z,13.50
2023-03-13T20:16:30.203Z,13.40
2023-03-13T20:19:31.278Z,13.30
2023-03-13T20:22:42.304Z,13.40
2023-03-13T20:25:43.498Z,13.70
2023-03-13T20:28:48.793Z,14.00
2023-03-13T20:31:51.746Z,13.90
2023-03-13T20:34:53.998Z,13.90
2023-03-13T20:37:54.928Z,14.20
2023-03-13T20:40:57.506Z,14.30
2023-03-13T20:43:58.661Z,14.60
2023-03-13T20:46:59.342Z,14.70
2023-03-13T20:50:00.519Z,14.60
2023-03-13T20:53:01.193Z,14.50
2023-03-13T20:56:02.055Z,14.50
2023-03-13T20:59:04.461Z,14.10
2023-03-13T21:02:06.684Z,13.40
2023-03-13T21:05:08.746Z,13.10
2023-03-13T21:08:11.322Z,12.90
2023-03-13T21:11:15.250Z,12.80
2023-03-13T21:14:16.090Z,12.70
2023-03-13T21:17:17.241Z,12.60
2023-03-13T21:20:18.289Z,12.50
2023-03-13T21:23:18.939Z,12.50
2023-03-13T21:26:19.978Z,12.30
2023-03-13T21:29:20.874Z,12.10
2023-03-13T21:32:21.729Z,11.90
2023-03-13T21:35:23.508Z,11.80
2023-03-13T21:38:24.802Z,11.70
2023-03-13T21:41:25.611Z,11.70
2023-03-13T21:44:27.377Z,11.70
2023-03-13T21:47:28.636Z,11.70
2023-03-13T21:50:29.801Z,11.60
2023-03-13T21:53:31.054Z,11.50
2023-03-13T21:56:31.865Z,11.50
2023-03-13T21:59:33.124Z,11.60
2023-03-13T22:02:37.355Z,11.40
2023-03-13T22:05:44.258Z,11.20
2023-03-13T22:08:45.472Z,11.20
2023-03-13T22:11:46.610Z,11.10
2023-03-13T22:14:47.312Z,11.10
2023-03-13T22:17:48.026Z,11.10
2023-03-13T22:20:49.066Z,11.10
2023-03-13T22:23:49.899Z,11.20
2023-03-13T22:26:51.078Z,11.30
2023-03-13T22:29:52.151Z,11.20
2023-03-13T22:32:52.966Z,11.00
2023-03-13T22:35:53.651Z,11.00
2023-03-13T22:38:54.782Z,11.00
2023-03-13T22:41:55.908Z,11.00
2023-03-13T22:44:57.238Z,11.10
2023-03-13T22:47:58.326Z,11.10
2023-03-13T22:51:17.541Z,11.20
2023-03-13T22:54:18.217Z,11.10
2023-03-13T22:57:18.983Z,10.90
2023-03-13T23:00:21.223Z,10.90
2023-03-13T23:03:23.348Z,10.80
2023-03-13T23:06:26.501Z,10.60
2023-03-13T23:09:27.081Z,10.50
2023-03-13T23:12:30.952Z,10.30
2023-03-13T23:15:43.100Z,10.20
2023-03-13T23:18:48.954Z,10.10
2023-03-13T23:21:50.060Z,10.10
2023-03-13T23:24:54.418Z,10.00
2023-03-13T23:27:55.425Z,9.80
2023-03-13T23:30:56.634Z,9.50
2023-03-13T23:33:59.246Z,9.30
2023-03-13T23:36:59.928Z,9.20
2023-03-13T23:40:05.029Z,8.90
2023-03-13T23:43:06.236Z,8.70
2023-03-13T23:46:28.683Z,8.60
2023-03-13T23:49:29.729Z,8.40
2023-03-13T23:52:34.384Z,8.30
2023-03-13T23:55:35.148Z,8.30
2023-03-13T23:58:36.521Z,8.00
